Time;durP1;ratioP1;P1;durP2;ratioP2;P2;SDS_P1;SDS_P2;PMS_P1;PMS_P2;Temp;Humidity;BMP_temperature;BMP_pressure;BME280_temperature;BME280_humidity;BME280_pressure;Samples;Min_cycle;Max_cycle;Signal;HPM_P1;HPM_P2
2021/06/12 00:02:14;;;;;;;7.60;2.72;;;;;;;26.46;32.13;102051.94;5073756;28;20487;-75
2021/06/12 00:04:40;;;;;;;6.03;2.85;;;;;;;26.54;31.87;102064.00;5073704;28;20024;-75
2021/06/12 00:07:05;;;;;;;4.88;2.53;;;;;;;26.57;32.09;102060.41;5055780;28;20417;-75
2021/06/12 00:09:31;;;;;;;4.22;2.05;;;;;;;26.51;31.90;102054.34;5073474;28;20028;-75
2021/06/12 00:11:57;;;;;;;6.07;2.13;;;;;;;26.53;32.00;102060.38;5073642;28;20024;-74
2021/06/12 00:14:23;;;;;;;4.95;1.90;;;;;;;26.52;31.68;102066.34;5073272;28;20495;-75
2021/06/12 00:16:48;;;;;;;6.28;2.10;;;;;;;26.45;31.74;102063.50;5073465;28;20021;-75
2021/06/12 00:19:14;;;;;;;6.03;2.33;;;;;;;26.45;31.24;102064.34;5073741;28;20074;-75
2021/06/12 00:21:40;;;;;;;4.70;1.70;;;;;;;26.47;31.42;102073.16;5073419;28;20025;-74
2021/06/12 00:24:08;;;;;;;5.10;1.40;;;;;;;26.42;31.14;102072.72;5055413;28;20032;-74
2021/06/12 00:26:34;;;;;;;3.92;1.52;;;;;;;26.40;31.60;102081.50;5073335;28;20017;-75
2021/06/12 00:29:01;;;;;;;5.60;2.35;;;;;;;26.45;31.48;102080.31;5073102;28;20052;-75
2021/06/12 00:31:27;;;;;;;3.95;1.38;;;;;;;26.42;31.23;102087.53;5073277;28;20500;-75
2021/06/12 00:33:54;;;;;;;6.63;2.22;;;;;;;26.34;31.63;102083.03;5073213;28;20040;-75
2021/06/12 00:36:20;;;;;;;6.40;1.85;;;;;;;26.29;31.18;102084.19;5072187;28;20021;-75
2021/06/12 00:38:52;;;;;;;6.88;2.42;;;;;;;26.27;31.42;102085.78;5073096;28;20052;-74
2021/06/12 00:41:19;;;;;;;5.93;1.50;;;;;;;26.28;31.30;102076.97;5073045;28;20082;-74
2021/06/12 00:43:45;;;;;;;5.05;1.92;;;;;;;26.18;31.66;102082.50;5073013;28;20048;-74
2021/06/12 00:46:11;;;;;;;5.15;1.88;;;;;;;26.11;31.77;102088.84;5055052;28;20386;-74
2021/06/12 00:48:38;;;;;;;4.60;1.90;;;;;;;26.11;31.74;102088.06;5072800;28;20033;-75
2021/06/12 00:51:04;;;;;;;5.63;2.08;;;;;;;26.08;31.72;102086.03;5072866;28;20075;-75
2021/06/12 00:53:42;;;;;;;4.22;1.98;;;;;;;26.07;31.72;102092.81;5072881;28;20024;-74
2021/06/12 00:56:17;;;;;;;4.75;2.30;;;;;;;26.09;31.24;102087.66;5072805;28;20020;-75
2021/06/12 00:58:43;;;;;;;4.75;2.25;;;;;;;26.16;31.33;102096.09;5072789;28;20498;-75
2021/06/12 01:01:16;;;;;;;6.65;2.13;;;;;;;26.04;31.28;102090.78;5054736;28;20558;-76
2021/06/12 01:03:42;;;;;;;6.68;2.00;;;;;;;26.00;31.27;102094.38;5072697;28;20025;-75
2021/06/12 01:06:09;;;;;;;6.22;1.98;;;;;;;25.99;31.48;102089.13;5072438;28;20544;-75
2021/06/12 01:08:35;;;;;;;6.72;2.95;;;;;;;26.02;31.11;102087.59;5054679;28;20609;-75
2021/06/12 01:11:02;;;;;;;6.82;2.55;;;;;;;25.99;31.34;102087.13;5072535;28;20475;-75
2021/06/12 01:13:34;;;;;;;10.25;2.42;;;;;;;26.02;31.11;102081.97;5072467;28;20021;-75
2021/06/12 01:16:05;;;;;;;9.63;2.17;;;;;;;25.97;30.94;102088.72;5072430;28;20045;-74
2021/06/12 01:18:34;;;;;;;6.97;1.80;;;;;;;25.93;31.11;102104.72;5072529;28;20479;-75
2021/06/12 01:21:07;;;;;;;7.30;1.90;;;;;;;25.86;31.33;102104.63;5054536;28;20025;-75
2021/06/12 01:23:59;;;;;;;5.97;2.25;;;;;;;25.79;31.15;102098.97;5054472;28;20386;-75
2021/06/12 01:26:41;;;;;;;6.03;2.65;;;;;;;25.68;31.40;102091.22;5072458;28;20031;-74
2021/06/12 01:30:01;;;;;;;5.78;2.83;;;;;;;25.48;31.53;102089.81;5072356;28;20028;-75
2021/06/12 01:32:30;;;;;;;3.10;1.95;;;;;;;25.49;31.54;102091.44;4971371;28;20173;-74
2021/06/12 01:35:00;;;;;;;7.68;2.58;;;;;;;25.46;31.54;102092.16;5067035;28;20387;-74
2021/06/12 01:37:27;;;;;;;5.82;2.38;;;;;;;25.33;31.45;102082.44;5072422;28;20032;-74
2021/06/12 01:39:54;;;;;;;5.30;2.45;;;;;;;25.29;31.67;102099.19;5054287;28;20028;-75
2021/06/12 01:42:21;;;;;;;11.15;2.75;;;;;;;25.17;31.94;102091.06;5072264;28;20024;-74
2021/06/12 01:44:48;;;;;;;6.10;2.67;;;;;;;25.19;31.51;102088.69;5072257;28;20048;-74
2021/06/12 01:47:15;;;;;;;7.35;2.35;;;;;;;25.12;31.86;102091.38;5072234;28;20025;-75
2021/06/12 01:49:42;;;;;;;9.77;2.78;;;;;;;25.07;31.84;102089.72;5076501;28;20032;-80
2021/06/12 01:52:09;;;;;;;3.72;2.15;;;;;;;25.04;31.76;102095.28;5076220;28;20016;-74
2021/06/12 01:54:36;;;;;;;8.23;2.35;;;;;;;24.95;31.88;102101.13;5076524;28;20459;-75
2021/06/12 01:57:03;;;;;;;7.18;2.75;;;;;;;24.91;32.20;102111.44;5076182;28;20028;-75
2021/06/12 01:59:30;;;;;;;6.43;2.45;;;;;;;24.90;31.84;102112.63;5076002;28;20064;-75
2021/06/12 02:01:59;;;;;;;6.22;2.80;;;;;;;24.83;31.98;102102.16;5076172;28;20099;-75
2021/06/12 02:04:27;;;;;;;6.90;2.42;;;;;;;24.81;32.01;102096.13;5074672;28;20020;-75
2021/06/12 02:06:55;;;;;;;6.28;2.38;;;;;;;24.77;31.83;102091.66;5076020;28;20020;-75
2021/06/12 02:09:21;;;;;;;6.97;2.53;;;;;;;24.73;31.72;102094.44;5075940;28;20039;-75
2021/06/12 02:11:47;;;;;;;8.98;2.80;;;;;;;24.74;31.77;102098.03;5075885;28;20398;-74
2021/06/12 02:14:14;;;;;;;7.32;3.20;;;;;;;24.69;31.74;102106.72;5073502;28;20077;-75
2021/06/12 02:16:41;;;;;;;10.20;2.60;;;;;;;24.66;32.12;102110.28;5075900;28;20103;-75
2021/06/12 02:19:09;;;;;;;6.55;2.25;;;;;;;24.65;32.06;102115.06;5075764;28;20047;-74
2021/06/12 02:21:36;;;;;;;6.68;2.40;;;;;;;24.56;32.17;102120.94;5075778;28;20405;-75
2021/06/12 02:24:03;;;;;;;5.55;2.30;;;;;;;24.56;31.84;102122.91;5075660;28;20111;-75
2021/06/12 02:26:32;;;;;;;4.25;2.33;;;;;;;24.52;31.98;102127.63;5075653;28;20024;-75
2021/06/12 02:28:58;;;;;;;4.85;2.72;;;;;;;24.49;31.95;102142.38;5075464;28;20028;-74
2021/06/12 02:31:30;;;;;;;4.13;2.22;;;;;;;24.48;32.26;102129.56;5075525;28;20073;-75
2021/06/12 02:33:57;;;;;;;3.50;2.28;;;;;;;24.44;31.94;102131.50;5075546;28;20459;-75
2021/06/12 02:36:23;;;;;;;7.15;2.58;;;;;;;24.41;31.99;102132.22;5075372;28;20029;-74
2021/06/12 02:38:49;;;;;;;3.70;2.13;;;;;;;24.37;32.10;102125.78;5075619;28;20043;-74
2021/06/12 02:41:15;;;;;;;5.25;2.60;;;;;;;24.33;32.12;102134.09;5075342;28;20532;-75
2021/06/12 02:43:41;;;;;;;7.15;2.28;;;;;;;24.28;32.26;102145.56;5075289;28;20024;-75
2021/06/12 02:46:14;;;;;;;4.30;2.53;;;;;;;24.23;32.27;102149.47;5075256;28;20023;-75
2021/06/12 02:48:43;;;;;;;5.47;2.13;;;;;;;24.19;32.13;102150.63;5075150;28;20031;-74
2021/06/12 02:51:10;;;;;;;9.85;2.70;;;;;;;24.15;32.12;102147.75;5075237;28;20043;-74
2021/06/12 02:53:42;;;;;;;6.05;2.72;;;;;;;24.10;32.14;102156.41;5075132;28;20035;-75
2021/06/12 02:56:08;;;;;;;8.68;3.17;;;;;;;23.97;32.58;102152.22;5075159;28;20020;-74
2021/06/12 02:58:37;;;;;;;8.35;2.30;;;;;;;23.94;32.38;102152.94;5075267;28;20035;-74
2021/06/12 03:01:04;;;;;;;4.00;2.08;;;;;;;23.97;32.33;102155.00;5073951;28;20028;-74
2021/06/12 03:03:33;;;;;;;6.20;2.30;;;;;;;23.96;32.40;102156.19;5074957;28;20035;-75
2021/06/12 03:05:59;;;;;;;7.35;2.67;;;;;;;23.85;32.45;102164.34;5074937;28;20016;-75
2021/06/12 03:08:29;;;;;;;17.70;3.78;;;;;;;23.71;32.86;102173.22;5074522;28;20110;-75
2021/06/12 03:10:56;;;;;;;9.38;3.10;;;;;;;23.85;32.37;102169.13;5074982;28;20024;-74
2021/06/12 03:13:26;;;;;;;7.13;2.30;;;;;;;23.85;32.51;102178.28;5074776;28;20024;-75
2021/06/12 03:15:53;;;;;;;;;;;;;;;23.70;32.62;102168.84;5057174;28;20491;-75
2021/06/12 03:18:19;;;;;;;4.60;1.83;;;;;;;23.76;32.32;102170.16;5074784;28;20007;-75
2021/06/12 03:20:46;;;;;;;5.88;2.00;;;;;;;23.69;32.48;102174.78;5074645;28;20063;-74
2021/06/12 03:23:13;;;;;;;5.40;2.10;;;;;;;23.62;32.79;102171.84;5074633;28;20475;-75
2021/06/12 03:25:39;;;;;;;7.00;1.88;;;;;;;23.57;32.87;102169.31;5074543;28;20033;-75
2021/06/12 03:28:05;;;;;;;6.53;2.20;;;;;;;23.56;32.80;102176.88;5074445;28;20029;-74
2021/06/12 03:30:31;;;;;;;4.82;2.42;;;;;;;23.55;32.55;102169.69;5074563;28;20028;-75
2021/06/12 03:32:58;;;;;;;4.65;1.80;;;;;;;23.48;32.70;102170.34;5074432;28;20491;-74
2021/06/12 03:35:25;;;;;;;4.78;2.15;;;;;;;23.33;33.03;102173.22;5074417;28;20444;-75
2021/06/12 03:37:51;;;;;;;4.85;2.55;;;;;;;23.37;33.07;102172.13;5074341;28;20108;-74
2021/06/12 03:40:17;;;;;;;7.45;3.05;;;;;;;23.34;33.09;102188.75;5074236;28;20390;-75
2021/06/12 03:42:44;;;;;;;6.53;2.83;;;;;;;23.37;33.14;102188.84;5074257;28;20483;-74
2021/06/12 03:45:12;;;;;;;6.88;2.05;;;;;;;23.40;32.87;102188.13;5074142;28;20491;-74
2021/06/12 03:47:38;;;;;;;2.85;2.00;;;;;;;23.38;32.86;102198.03;5074119;28;20111;-74
2021/06/12 03:50:07;;;;;;;4.53;1.83;;;;;;;23.45;33.03;102192.59;5074146;28;20032;-75
2021/06/12 03:52:34;;;;;;;7.73;2.67;;;;;;;23.48;32.97;102192.66;5074324;28;20028;-75
2021/06/12 03:55:01;;;;;;;3.35;1.60;;;;;;;23.49;33.21;102187.88;5074008;28;20032;-74
2021/06/12 03:57:27;;;;;;;17.85;3.15;;;;;;;23.55;33.04;102192.00;5073882;28;20522;-75
2021/06/12 03:59:53;;;;;;;7.25;2.40;;;;;;;23.62;33.11;102191.38;5055996;28;20028;-74
2021/06/12 04:02:19;;;;;;;3.60;2.08;;;;;;;23.64;33.08;102194.59;5073871;28;20074;-74
2021/06/12 04:04:47;;;;;;;3.53;1.55;;;;;;;23.71;32.97;102189.97;5073815;28;20107;-74
2021/06/12 04:07:13;;;;;;;10.60;2.22;;;;;;;23.78;33.16;102190.13;5073728;28;20074;-74
2021/06/12 04:09:39;;;;;;;3.72;1.80;;;;;;;23.86;32.94;102193.06;5055712;28;20039;-75
2021/06/12 04:12:06;;;;;;;11.45;2.97;;;;;;;23.89;33.21;102189.53;5073298;28;20025;-75
2021/06/12 04:14:32;;;;;;;4.45;2.00;;;;;;;23.96;33.04;102186.88;5073413;28;20127;-75
2021/06/12 04:16:59;;;;;;;4.80;1.67;;;;;;;24.05;33.02;102177.09;5073510;28;20119;-75
2021/06/12 04:19:25;;;;;;;13.52;2.55;;;;;;;24.09;32.82;102175.16;5073504;28;20080;-75
2021/06/12 04:21:50;;;;;;;4.82;1.60;;;;;;;24.17;32.92;102173.28;5073491;28;20021;-75
2021/06/12 04:24:16;;;;;;;3.47;1.70;;;;;;;24.24;32.67;102169.84;5073399;28;20044;-75
2021/06/12 04:26:42;;;;;;;5.75;2.17;;;;;;;24.31;32.67;102167.97;5073325;28;20028;-75
2021/06/12 04:29:07;;;;;;;3.45;2.13;;;;;;;24.25;32.71;102169.44;5073178;28;20029;-75
2021/06/12 04:31:34;;;;;;;8.88;2.20;;;;;;;24.30;32.82;102177.53;5073162;28;20020;-75
2021/06/12 04:34:00;;;;;;;4.38;1.80;;;;;;;24.31;32.61;102165.19;5073210;28;20074;-75
2021/06/12 04:36:26;;;;;;;3.13;1.80;;;;;;;24.42;32.41;102175.78;5073226;28;20032;-75
2021/06/12 04:38:52;;;;;;;4.35;1.45;;;;;;;24.50;32.41;102183.09;5073147;28;20107;-74
2021/06/12 04:41:17;;;;;;;4.38;2.30;;;;;;;24.48;32.52;102180.66;5073054;28;20048;-75
2021/06/12 04:43:43;;;;;;;4.22;1.80;;;;;;;24.53;32.75;102190.72;5073040;28;20029;-75
2021/06/12 04:46:08;;;;;;;7.18;2.42;;;;;;;24.53;32.67;102199.09;5072918;28;20024;-75
2021/06/12 04:48:34;;;;;;;10.15;2.47;;;;;;;24.48;32.86;102203.00;5054896;28;20033;-75
2021/06/12 04:51:00;;;;;;;5.35;2.03;;;;;;;24.61;32.70;102198.84;5357032;22;20040;-73
2021/06/12 04:53:30;;;;;;;3.75;2.30;;;;;;;24.69;32.85;102202.56;5073076;28;20028;-79
2021/06/12 04:55:55;;;;;;;;;;;;;;;24.67;32.81;102188.16;5054323;28;20064;-74
2021/06/12 04:58:22;;;;;;;10.93;2.45;;;;;;;24.65;32.70;102196.13;5055686;28;19956;-73
2021/06/12 05:00:49;;;;;;;7.13;1.98;;;;;;;24.76;32.36;102205.47;5052823;28;20020;-74
2021/06/12 05:03:14;;;;;;;4.82;2.20;;;;;;;24.84;32.44;102209.97;5053113;28;20112;-74
2021/06/12 05:05:40;;;;;;;4.50;1.70;;;;;;;24.87;32.48;102217.63;5035195;28;20510;-74
2021/06/12 05:08:05;;;;;;;4.38;1.65;;;;;;;24.95;32.47;102212.97;5052631;28;20119;-78
2021/06/12 05:10:31;;;;;;;6.05;1.85;;;;;;;24.97;32.72;102212.59;5035149;28;20059;-74
2021/06/12 05:12:57;;;;;;;3.95;1.63;;;;;;;24.95;32.58;102212.97;5035163;28;20111;-74
2021/06/12 05:15:28;;;;;;;3.20;1.90;;;;;;;25.05;32.40;102206.75;5034750;28;20405;-74
2021/06/12 05:17:53;;;;;;;4.72;2.50;;;;;;;25.06;32.47;102204.75;5052765;28;20086;-74
2021/06/12 05:20:21;;;;;;;5.38;1.92;;;;;;;25.10;32.56;102209.22;5034843;28;20021;-73
2021/06/12 05:22:48;;;;;;;2.95;1.85;;;;;;;25.16;32.71;102212.47;5052279;28;20029;-74
2021/06/12 05:25:14;;;;;;;8.68;3.47;;;;;;;25.10;32.48;102228.81;5052733;28;20074;-74
2021/06/12 05:27:40;;;;;;;4.68;2.00;;;;;;;25.20;32.50;102218.94;5052743;28;20024;-75
2021/06/12 05:30:06;;;;;;;4.22;2.03;;;;;;;25.27;32.40;102201.47;5052790;28;20041;-74
2021/06/12 05:32:31;;;;;;;5.22;2.38;;;;;;;25.25;32.65;102217.81;5052186;28;20064;-84
2021/06/12 05:34:58;;;;;;;8.23;2.60;;;;;;;25.35;32.57;102225.53;5034776;28;20126;-73
2021/06/12 05:37:23;;;;;;;3.63;2.10;;;;;;;25.34;32.78;102227.53;5052597;28;20025;-73
2021/06/12 05:39:49;;;;;;;7.93;2.30;;;;;;;25.44;32.40;102226.06;5052502;28;20090;-73
2021/06/12 05:42:14;;;;;;;6.57;2.50;;;;;;;25.50;32.43;102227.34;5052600;28;20044;-75
2021/06/12 05:44:40;;;;;;;7.18;2.03;;;;;;;25.52;32.18;102233.38;5052713;28;20039;-74
2021/06/12 05:47:06;;;;;;;9.48;3.20;;;;;;;25.45;32.14;102234.06;5052253;28;20029;-73
2021/06/12 05:49:31;;;;;;;4.68;2.20;;;;;;;25.51;32.39;102236.56;5052368;28;20489;-84
2021/06/12 05:51:57;;;;;;;4.95;2.33;;;;;;;25.52;32.17;102238.16;5053298;28;20045;-81
2021/06/12 05:54:22;;;;;;;3.72;2.00;;;;;;;25.66;32.23;102225.16;5053523;28;20029;-74
2021/06/12 05:56:48;;;;;;;10.75;3.13;;;;;;;25.69;32.25;102232.81;5053812;28;20029;-83
2021/06/12 05:59:14;;;;;;;4.05;1.80;;;;;;;25.69;31.87;102230.00;5038070;28;20036;-84
2021/06/12 06:01:39;;;;;;;5.97;2.38;;;;;;;25.59;32.17;102227.88;5073163;28;20032;-86
2021/06/12 06:04:05;;;;;;;2.97;1.92;;;;;;;25.79;31.78;102238.94;5073261;28;20497;-84
2021/06/12 06:06:30;;;;;;;4.60;1.52;;;;;;;25.95;31.84;102237.53;5072914;28;20032;-74
2021/06/12 06:08:56;;;;;;;5.25;2.25;;;;;;;26.14;31.53;102244.13;5055041;28;20123;-85
2021/06/12 06:11:21;;;;;;;8.15;2.47;;;;;;;26.22;31.50;102249.44;5069404;28;20044;-73
2021/06/12 06:13:47;;;;;;;5.47;2.25;;;;;;;26.30;31.12;102250.31;5070817;28;20437;-73
2021/06/12 06:16:13;;;;;;;7.13;2.28;;;;;;;26.31;31.43;102246.31;5072197;28;20082;-83
2021/06/12 06:18:39;;;;;;;9.90;2.30;;;;;;;26.21;31.21;102255.41;5062941;28;20113;-74
2021/06/12 06:21:06;;;;;;;3.05;1.60;;;;;;;26.23;31.13;102253.84;5055387;28;20044;-74
2021/06/12 06:23:32;;;;;;;3.60;1.60;;;;;;;26.49;30.61;102252.13;5054644;28;20025;-74
2021/06/12 06:25:58;;;;;;;5.60;1.90;;;;;;;26.57;31.00;102250.19;5053677;28;20085;-74
2021/06/12 06:28:24;;;;;;;2.88;1.42;;;;;;;26.30;31.13;102255.94;5053841;28;20033;-74
2021/06/12 06:30:49;;;;;;;4.22;1.55;;;;;;;26.62;30.60;102252.66;5057525;28;20036;-74
2021/06/12 06:33:15;;;;;;;3.75;1.40;;;;;;;26.74;30.21;102255.13;5071415;28;20044;-73
2021/06/12 06:35:41;;;;;;;3.63;1.77;;;;;;;26.76;30.35;102253.59;5070412;28;20123;-74
2021/06/12 06:38:07;;;;;;;4.43;1.80;;;;;;;26.75;30.48;102256.75;5059541;28;20062;-74
2021/06/12 06:40:32;;;;;;;2.97;1.52;;;;;;;26.77;30.22;102266.41;5074977;28;20047;-76
2021/06/12 06:42:58;;;;;;;3.08;1.55;;;;;;;27.15;29.96;102269.13;5069061;28;20107;-73
2021/06/12 06:45:24;;;;;;;5.18;1.55;;;;;;;26.89;30.43;102264.47;5057475;28;20036;-73
2021/06/12 06:47:50;;;;;;;3.60;1.50;;;;;;;26.87;30.61;102270.47;5058563;28;20028;-74
2021/06/12 06:50:16;;;;;;;5.53;2.03;;;;;;;26.82;30.43;102265.22;5058864;28;20029;-75
2021/06/12 06:52:43;;;;;;;7.15;2.13;;;;;;;26.91;30.13;102271.31;5077612;28;20047;-74
2021/06/12 06:55:10;;;;;;;9.55;2.42;;;;;;;27.03;30.28;102278.63;5076568;28;20028;-74
2021/06/12 06:57:35;;;;;;;14.90;3.42;;;;;;;27.02;30.16;102277.00;5070263;28;20517;-73
2021/06/12 07:00:02;;;;;;;4.50;1.30;;;;;;;27.15;29.87;102285.97;5057380;28;20045;-74
2021/06/12 07:02:28;;;;;;;4.03;1.85;;;;;;;27.16;29.66;102293.19;5059158;28;20486;-73
2021/06/12 07:04:53;;;;;;;2.88;1.60;;;;;;;27.39;29.54;102290.91;5059941;28;20073;-74
2021/06/12 07:07:19;;;;;;;6.78;2.90;;;;;;;27.55;29.30;102297.03;5051694;28;20028;-75
2021/06/12 07:09:44;;;;;;;10.05;1.88;;;;;;;27.45;29.60;102294.97;5072129;28;20706;-74
2021/06/12 07:12:11;;;;;;;6.88;2.45;;;;;;;27.30;29.80;102301.69;5077421;28;20035;-78
2021/06/12 07:14:39;;;;;;;7.05;1.42;;;;;;;27.47;29.09;102292.56;5061359;28;20024;-75
2021/06/12 07:17:04;;;;;;;7.70;1.90;;;;;;;27.52;29.24;102295.00;5059723;28;20028;-74
2021/06/12 07:19:30;;;;;;;4.80;2.20;;;;;;;27.56;28.83;102295.81;5070383;28;20035;-85
2021/06/12 07:21:55;;;;;;;11.27;2.45;;;;;;;27.63;29.11;102295.06;5079041;28;20144;-75
2021/06/12 07:24:22;;;;;;;5.30;1.65;;;;;;;27.56;29.05;102301.44;5078288;28;20020;-75
2021/06/12 07:26:48;;;;;;;10.07;2.97;;;;;;;27.64;29.00;102296.66;5066218;28;20072;-75
2021/06/12 07:29:14;;;;;;;7.25;1.50;;;;;;;27.63;29.16;102300.69;5077726;28;20124;-75
2021/06/12 07:31:41;;;;;;;11.02;2.53;;;;;;;27.70;29.25;102295.13;5072793;28;20024;-78
2021/06/12 07:34:08;;;;;;;4.60;1.75;;;;;;;27.74;29.11;102287.53;5070473;28;20104;-83
2021/06/12 07:36:35;;;;;;;5.68;1.40;;;;;;;27.67;29.44;102286.69;5077770;28;20124;-82
2021/06/12 07:39:01;;;;;;;2.35;1.23;;;;;;;27.48;29.35;102285.75;5078055;28;20477;-76
2021/06/12 07:41:28;;;;;;;3.22;1.23;;;;;;;27.46;29.67;102293.78;5095322;28;20028;-76
2021/06/12 07:43:54;;;;;;;3.63;1.70;;;;;;;27.61;29.51;102300.28;5063713;28;20030;-76
2021/06/12 07:46:20;;;;;;;7.90;1.73;;;;;;;27.54;29.32;102306.66;5061954;28;20132;-75
2021/06/12 07:48:46;;;;;;;1.98;1.35;;;;;;;27.56;29.60;102309.06;5064698;28;20032;-79
2021/06/12 07:51:12;;;;;;;4.07;1.63;;;;;;;27.69;28.91;102312.38;5067637;28;20041;-84
2021/06/12 07:53:38;;;;;;;5.63;1.60;;;;;;;27.84;29.10;102311.25;5054443;28;20195;-76
2021/06/12 07:56:04;;;;;;;5.65;1.90;;;;;;;27.82;29.00;102308.84;5053836;28;20040;-88
2021/06/12 07:58:30;;;;;;;2.47;1.10;;;;;;;27.73;28.94;102316.00;5055869;28;20032;-76
2021/06/12 08:00:56;;;;;;;11.60;2.40;;;;;;;27.82;28.86;102311.66;5070100;28;20044;-75
2021/06/12 08:03:21;;;;;;;8.40;2.65;;;;;;;27.51;29.37;102309.44;5060082;28;20031;-75
2021/06/12 08:05:47;;;;;;;4.20;1.55;;;;;;;27.29;29.52;102308.50;5055168;28;20159;-75
2021/06/12 08:08:13;;;;;;;5.28;1.42;;;;;;;27.31;29.58;102306.09;5069889;28;21406;-74
2021/06/12 08:10:39;;;;;;;5.18;1.85;;;;;;;27.19;29.92;102303.59;5053218;28;20171;-74
2021/06/12 08:13:04;;;;;;;6.28;2.13;;;;;;;27.73;29.23;102311.19;5054347;28;20210;-75
2021/06/12 08:15:30;;;;;;;3.90;1.73;;;;;;;27.65;29.25;102309.50;5057040;28;20073;-74
2021/06/12 08:17:56;;;;;;;4.32;1.23;;;;;;;27.55;29.32;102311.06;5053853;28;20486;-75
2021/06/12 08:20:24;;;;;;;5.43;1.70;;;;;;;27.56;29.49;102312.66;5051612;28;20033;-82
2021/06/12 08:22:50;;;;;;;6.40;1.90;;;;;;;27.68;29.07;102307.97;5053454;28;20045;-75
2021/06/12 08:25:16;;;;;;;4.78;1.60;;;;;;;27.71;29.56;102307.16;5066527;28;20035;-79
2021/06/12 08:27:42;;;;;;;6.50;2.28;;;;;;;27.68;29.79;102308.78;5058882;28;20041;-76
2021/06/12 08:30:08;;;;;;;6.63;1.60;;;;;;;27.64;30.04;102311.50;5071038;28;20051;-88
2021/06/12 08:32:34;;;;;;;2.25;1.20;;;;;;;27.86;29.63;102309.66;5058839;28;20086;-88
2021/06/12 08:35:00;;;;;;;3.80;1.77;;;;;;;27.96;29.48;102310.88;5070766;28;20033;-77
2021/06/12 08:37:25;;;;;;;13.07;3.72;;;;;;;28.16;29.18;102305.75;5060317;28;20478;-80
2021/06/12 08:39:52;;;;;;;5.55;1.67;;;;;;;28.37;29.26;102302.22;5058818;28;20024;-94
2021/06/12 08:42:19;;;;;;;7.15;1.55;;;;;;;28.18;29.16;102306.94;5069916;28;20029;-96
2021/06/12 08:44:45;;;;;;;8.63;1.52;;;;;;;28.53;28.71;102308.28;5065347;28;20036;-85
2021/06/12 08:47:11;;;;;;;6.38;1.60;;;;;;;28.48;28.48;102308.66;5051830;28;20116;-77
2021/06/12 08:49:40;;;;;;;11.88;1.95;;;;;;;28.57;28.12;102311.09;5050858;28;20037;-77
2021/06/12 08:52:07;;;;;;;5.90;1.48;;;;;;;28.57;28.23;102317.53;5051162;28;20556;-82
2021/06/12 08:54:33;;;;;;;5.50;1.75;;;;;;;28.65;28.26;102319.16;5050919;28;20029;-87
2021/06/12 08:56:58;;;;;;;5.43;1.83;;;;;;;28.92;27.65;102316.78;5051264;28;20121;-84
2021/06/12 08:59:26;;;;;;;16.17;2.97;;;;;;;28.92;27.86;102315.97;5053566;28;20051;-77
2021/06/12 09:01:52;;;;;;;7.45;1.77;;;;;;;28.74;27.88;102319.56;5071751;28;20049;-76
2021/06/12 09:04:32;;;;;;;12.55;1.60;;;;;;;28.59;28.55;102332.00;5071306;28;20481;-77
2021/06/12 09:07:24;;;;;;;4.05;1.55;;;;;;;28.38;28.76;102326.31;5053868;28;20031;-77
2021/06/12 09:09:52;;;;;;;5.10;1.45;;;;;;;28.46;28.70;102337.19;5071598;28;20093;-77
2021/06/12 09:12:19;;;;;;;4.88;1.17;;;;;;;28.63;28.19;102338.41;5071233;28;20074;-77
2021/06/12 09:15:10;;;;;;;5.82;2.75;;;;;;;28.57;28.98;102348.47;5070960;28;20020;-86
2021/06/12 09:17:40;;;;;;;3.28;1.30;;;;;;;28.85;28.59;102344.06;5072369;28;20025;-76
2021/06/12 09:20:08;;;;;;;11.20;2.25;;;;;;;28.72;28.36;102341.66;5073142;28;20046;-77
2021/06/12 09:22:35;;;;;;;4.88;1.75;;;;;;;29.01;28.22;102338.88;5055157;28;20024;-76
2021/06/12 09:25:00;;;;;;;3.63;1.23;;;;;;;28.98;28.03;102331.25;5053331;28;20039;-77
2021/06/12 09:27:26;;;;;;;3.83;1.05;;;;;;;29.05;28.25;102345.31;5055734;28;20025;-78
2021/06/12 09:29:53;;;;;;;9.57;2.47;;;;;;;29.21;28.39;102342.09;5055681;28;20038;-77
2021/06/12 09:32:28;;;;;;;20.17;2.33;;;;;;;29.16;27.87;102345.31;5055835;28;20028;-79
2021/06/12 09:35:06;;;;;;;6.32;2.20;;;;;;;29.21;27.85;102350.53;5055457;28;20021;-79
2021/06/12 09:37:32;;;;;;;6.10;1.60;;;;;;;29.06;28.23;102346.13;5054157;28;20071;-87
2021/06/12 09:40:07;;;;;;;7.10;1.83;;;;;;;29.28;27.73;102345.69;5042188;28;20036;-83
2021/06/12 09:42:56;;;;;;;15.73;2.30;;;;;;;29.49;27.54;102352.53;5055743;28;20055;-78
2021/06/12 09:45:28;;;;;;;6.97;1.50;;;;;;;29.35;27.99;102356.16;5055518;28;20037;-78
2021/06/12 09:48:09;;;;;;;4.43;1.38;;;;;;;29.52;27.23;102352.53;5055157;28;20063;-78
2021/06/12 09:50:35;;;;;;;6.65;1.33;;;;;;;29.71;27.24;102350.50;5038794;28;20140;-87
2021/06/12 09:53:14;;;;;;;9.32;1.70;;;;;;;29.67;27.01;102356.13;5055254;28;20028;-78
2021/06/12 09:55:40;;;;;;;8.63;1.90;;;;;;;29.96;26.95;102361.66;5054290;28;20437;-80
2021/06/12 09:58:06;;;;;;;3.75;1.55;;;;;;;30.03;26.85;102364.47;5045530;28;20038;-79
2021/06/12 10:00:39;;;;;;;7.28;1.63;;;;;;;29.73;27.00;102360.13;5055706;28;20854;-79
2021/06/12 10:03:24;;;;;;;3.10;1.10;;;;;;;30.27;26.42;102363.56;5047627;28;20025;-80
2021/06/12 10:06:10;;;;;;;7.68;2.10;;;;;;;30.22;26.74;102368.81;5055998;28;20047;-80
2021/06/12 10:08:36;;;;;;;8.77;1.95;;;;;;;30.08;26.92;102370.53;5051604;28;20613;-81
2021/06/12 10:11:03;;;;;;;11.75;2.03;;;;;;;29.93;27.02;102359.69;5039216;28;20119;-80
2021/06/12 10:13:29;;;;;;;6.72;2.13;;;;;;;30.31;26.39;102363.56;5058559;28;20044;-79
2021/06/12 10:15:56;;;;;;;2.80;1.00;;;;;;;30.35;26.65;102367.16;5058407;28;20024;-75
2021/06/12 10:18:25;;;;;;;17.42;1.70;;;;;;;29.93;26.77;102371.75;5058431;28;20139;-79
2021/06/12 10:20:51;;;;;;;8.80;2.22;;;;;;;30.30;26.04;102370.41;5058585;28;20036;-80
2021/06/12 10:23:16;;;;;;;3.53;1.40;;;;;;;30.39;25.50;102373.59;5057340;28;20033;-88
2021/06/12 10:25:42;;;;;;;3.78;1.40;;;;;;;30.67;25.88;102372.63;5051945;28;20032;-80
2021/06/12 10:28:09;;;;;;;3.83;1.60;;;;;;;30.95;25.40;102368.81;5058752;28;20032;-79
2021/06/12 10:30:36;;;;;;;10.02;1.95;;;;;;;31.04;25.04;102371.97;5047665;28;20025;-81
2021/06/12 10:33:02;;;;;;;8.13;1.52;;;;;;;31.12;25.41;102372.69;5048171;28;20548;-79
2021/06/12 10:35:28;;;;;;;12.10;1.67;;;;;;;31.17;25.52;102375.09;5058248;28;20762;-80
2021/06/12 10:38:14;;;;;;;12.30;2.70;;;;;;;31.32;25.23;102353.22;5042084;28;20017;-80
2021/06/12 10:40:46;;;;;;;9.93;2.10;;;;;;;31.28;25.14;102366.53;5049670;28;20390;-83
2021/06/12 10:43:15;;;;;;;21.35;4.55;;;;;;;31.48;25.16;102368.38;5047059;28;20062;-79
2021/06/12 10:45:42;;;;;;;4.18;1.67;;;;;;;31.33;24.82;102374.56;5042747;28;20043;-79
2021/06/12 10:48:08;;;;;;;4.07;1.38;;;;;;;31.17;25.40;102375.09;5057127;28;20049;-81
2021/06/12 10:50:40;;;;;;;6.75;1.75;;;;;;;31.66;24.53;102375.84;5060100;28;20037;-81
2021/06/12 10:53:17;;;;;;;13.02;1.88;;;;;;;31.57;24.58;102365.03;5055831;28;20122;-83
2021/06/12 10:55:43;;;;;;;5.75;1.48;;;;;;;31.77;24.39;102368.09;5065044;28;20047;-80
2021/06/12 10:58:37;;;;;;;2.08;0.98;;;;;;;31.55;24.66;102367.50;5065799;28;20035;-75
2021/06/12 11:01:16;;;;;;;1.70;0.95;;;;;;;31.67;24.58;102371.81;5049787;28;20486;-76
2021/06/12 11:04:10;;;;;;;3.40;1.30;;;;;;;31.46;24.48;102375.66;5046887;28;20036;-78
2021/06/12 11:09:19;;;;;;;11.45;1.92;;;;;;;31.73;24.34;102375.75;5066958;28;20086;-79
2021/06/12 11:11:53;;;;;;;9.68;2.10;;;;;;;31.76;23.85;102377.78;5046943;28;20036;-76
2021/06/12 11:14:22;;;;;;;4.88;1.58;;;;;;;31.93;23.58;102370.34;5047031;28;20116;-76
2021/06/12 11:17:06;;;;;;;7.30;2.15;;;;;;;31.95;23.82;102377.16;5064653;28;20514;-79
2021/06/12 11:19:36;;;;;;;2.80;1.00;;;;;;;32.04;24.16;102376.63;5062144;28;20055;-76
2021/06/12 11:22:38;;;;;;;5.00;1.08;;;;;;;31.85;24.28;102369.63;5064859;28;20024;-81
2021/06/12 11:25:10;;;;;;;8.07;1.92;;;;;;;31.81;24.09;102377.31;5065561;28;20028;-80
2021/06/12 11:27:44;;;;;;;6.10;1.80;;;;;;;31.72;24.95;102383.44;5063745;28;20414;-77
2021/06/12 11:30:10;;;;;;;3.22;1.63;;;;;;;31.76;24.64;102380.59;5063663;28;20025;-77
2021/06/12 11:32:35;;;;;;;4.55;2.03;;;;;;;31.54;25.07;102388.50;5049644;28;20085;-76